sensor_id;sensor_type;location;lat;lon;timestamp;temperature;humidity
3690;DHT22;1861;50.240;8.596;2022-08-20T00:02:11;23.60;87.70
3690;DHT22;1861;50.240;8.596;2022-08-20T00:04:41;23.60;87.30
3690;DHT22;1861;50.240;8.596;2022-08-20T00:07:09;23.60;87.30
3690;DHT22;1861;50.240;8.596;2022-08-20T00:09:38;23.60;87.60
3690;DHT22;1861;50.240;8.596;2022-08-20T00:12:07;23.60;87.90
3690;DHT22;1861;50.240;8.596;2022-08-20T00:14:36;23.60;87.90
3690;DHT22;1861;50.240;8.596;2022-08-20T00:17:05;23.60;88.00
3690;DHT22;1861;50.240;8.596;2022-08-20T00:19:33;23.60;88.10
3690;DHT22;1861;50.240;8.596;2022-08-20T00:22:03;23.60;88.00
3690;DHT22;1861;50.240;8.596;2022-08-20T00:24:31;23.60;88.00
3690;DHT22;1861;50.240;8.596;2022-08-20T00:27:00;23.60;87.90
3690;DHT22;1861;50.240;8.596;2022-08-20T00:29:29;23.60;88.10
3690;DHT22;1861;50.240;8.596;2022-08-20T00:31:57;23.60;88.00
3690;DHT22;1861;50.240;8.596;2022-08-20T00:34:26;23.60;88.00
3690;DHT22;1861;50.240;8.596;2022-08-20T00:36:54;23.60;88.10
3690;DHT22;1861;50.240;8.596;2022-08-20T00:39:24;23.60;88.20
3690;DHT22;1861;50.240;8.596;2022-08-20T00:41:52;23.50;88.30
3690;DHT22;1861;50.240;8.596;2022-08-20T00:44:22;23.60;88.60
3690;DHT22;1861;50.240;8.596;2022-08-20T00:46:51;23.60;88.50
3690;DHT22;1861;50.240;8.596;2022-08-20T00:49:21;23.60;88.70
3690;DHT22;1861;50.240;8.596;2022-08-20T00:51:55;23.60;88.90
3690;DHT22;1861;50.240;8.596;2022-08-20T00:54:28;23.60;89.00
3690;DHT22;1861;50.240;8.596;2022-08-20T00:56:59;23.50;89.10
3690;DHT22;1861;50.240;8.596;2022-08-20T00:59:31;23.50;89.20
3690;DHT22;1861;50.240;8.596;2022-08-20T01:02:01;23.50;89.40
3690;DHT22;1861;50.240;8.596;2022-08-20T01:04:32;23.50;89.30
3690;DHT22;1861;50.240;8.596;2022-08-20T01:07:01;23.40;89.60
3690;DHT22;1861;50.240;8.596;2022-08-20T01:09:34;23.50;89.90
3690;DHT22;1861;50.240;8.596;2022-08-20T01:12:23;23.50;89.80
3690;DHT22;1861;50.240;8.596;2022-08-20T01:14:52;23.50;90.00
3690;DHT22;1861;50.240;8.596;2022-08-20T01:17:23;23.50;90.00
3690;DHT22;1861;50.240;8.596;2022-08-20T01:19:56;23.50;90.10
3690;DHT22;1861;50.240;8.596;2022-08-20T01:22:40;23.50;90.10
3690;DHT22;1861;50.240;8.596;2022-08-20T01:25:39;23.50;90.20
3690;DHT22;1861;50.240;8.596;2022-08-20T01:28:09;23.50;90.20
3690;DHT22;1861;50.240;8.596;2022-08-20T01:30:37;23.40;90.20
3690;DHT22;1861;50.240;8.596;2022-08-20T01:33:06;23.40;90.20
3690;DHT22;1861;50.240;8.596;2022-08-20T01:35:36;23.40;90.30
3690;DHT22;1861;50.240;8.596;2022-08-20T01:38:05;23.40;90.40
3690;DHT22;1861;50.240;8.596;2022-08-20T01:40:49;23.40;90.40
3690;DHT22;1861;50.240;8.596;2022-08-20T01:43:19;23.50;90.40
3690;DHT22;1861;50.240;8.596;2022-08-20T01:45:49;23.40;90.40
3690;DHT22;1861;50.240;8.596;2022-08-20T01:48:19;23.50;90.50
3690;DHT22;1861;50.240;8.596;2022-08-20T01:50:55;23.40;90.60
3690;DHT22;1861;50.240;8.596;2022-08-20T01:53:29;23.50;90.70
3690;DHT22;1861;50.240;8.596;2022-08-20T01:56:01;23.50;90.70
3690;DHT22;1861;50.240;8.596;2022-08-20T01:58:29;23.40;90.70
3690;DHT22;1861;50.240;8.596;2022-08-20T02:00:58;23.50;90.70
3690;DHT22;1861;50.240;8.596;2022-08-20T02:03:26;23.50;90.70
3690;DHT22;1861;50.240;8.596;2022-08-20T02:05:55;23.40;90.80
3690;DHT22;1861;50.240;8.596;2022-08-20T02:08:23;23.40;90.90
3690;DHT22;1861;50.240;8.596;2022-08-20T02:10:51;23.40;90.90
3690;DHT22;1861;50.240;8.596;2022-08-20T02:13:23;23.40;90.90
3690;DHT22;1861;50.240;8.596;2022-08-20T02:15:51;23.40;90.90
3690;DHT22;1861;50.240;8.596;2022-08-20T02:18:19;23.40;91.00
3690;DHT22;1861;50.240;8.596;2022-08-20T02:20:49;23.30;90.90
3690;DHT22;1861;50.240;8.596;2022-08-20T02:23:18;23.30;91.00
3690;DHT22;1861;50.240;8.596;2022-08-20T02:25:47;23.30;90.90
3690;DHT22;1861;50.240;8.596;2022-08-20T02:28:17;23.30;91.00
3690;DHT22;1861;50.240;8.596;2022-08-20T02:30:50;23.30;91.00
3690;DHT22;1861;50.240;8.596;2022-08-20T02:33:20;23.40;91.00
3690;DHT22;1861;50.240;8.596;2022-08-20T02:35:51;23.30;91.00
3690;DHT22;1861;50.240;8.596;2022-08-20T02:38:21;23.40;91.10
3690;DHT22;1861;50.240;8.596;2022-08-20T02:40:49;23.40;90.90
3690;DHT22;1861;50.240;8.596;2022-08-20T02:43:17;23.40;91.00
3690;DHT22;1861;50.240;8.596;2022-08-20T02:45:47;23.30;91.00
3690;DHT22;1861;50.240;8.596;2022-08-20T02:48:18;23.30;91.10
3690;DHT22;1861;50.240;8.596;2022-08-20T02:50:50;23.30;91.10
3690;DHT22;1861;50.240;8.596;2022-08-20T02:53:19;23.30;91.10
3690;DHT22;1861;50.240;8.596;2022-08-20T02:55:48;23.30;91.10
3690;DHT22;1861;50.240;8.596;2022-08-20T02:58:16;23.20;91.10
3690;DHT22;1861;50.240;8.596;2022-08-20T03:00:46;23.20;91.10
3690;DHT22;1861;50.240;8.596;2022-08-20T03:03:15;23.20;91.10
3690;DHT22;1861;50.240;8.596;2022-08-20T03:05:46;23.20;91.20
3690;DHT22;1861;50.240;8.596;2022-08-20T03:08:15;23.20;91.20
3690;DHT22;1861;50.240;8.596;2022-08-20T03:10:45;23.20;91.30
3690;DHT22;1861;50.240;8.596;2022-08-20T03:13:14;23.20;91.30
3690;DHT22;1861;50.240;8.596;2022-08-20T03:15:48;23.10;91.20
3690;DHT22;1861;50.240;8.596;2022-08-20T03:18:24;23.20;91.30
3690;DHT22;1861;50.240;8.596;2022-08-20T03:20:52;23.20;91.20
3690;DHT22;1861;50.240;8.596;2022-08-20T03:23:21;23.20;91.20
3690;DHT22;1861;50.240;8.596;2022-08-20T03:25:49;23.20;91.20
3690;DHT22;1861;50.240;8.596;2022-08-20T03:28:18;23.10;91.10
3690;DHT22;1861;50.240;8.596;2022-08-20T03:30:48;23.10;91.20
3690;DHT22;1861;50.240;8.596;2022-08-20T03:33:17;23.10;91.20
3690;DHT22;1861;50.240;8.596;2022-08-20T03:35:46;23.20;91.30
3690;DHT22;1861;50.240;8.596;2022-08-20T03:38:17;23.20;91.30
3690;DHT22;1861;50.240;8.596;2022-08-20T03:40:58;23.20;91.30
3690;DHT22;1861;50.240;8.596;2022-08-20T03:43:27;23.20;91.30
3690;DHT22;1861;50.240;8.596;2022-08-20T03:45:57;23.20;91.30
3690;DHT22;1861;50.240;8.596;2022-08-20T03:48:26;23.10;91.30
3690;DHT22;1861;50.240;8.596;2022-08-20T03:50:55;23.10;91.30
3690;DHT22;1861;50.240;8.596;2022-08-20T03:53:27;23.10;91.30
3690;DHT22;1861;50.240;8.596;2022-08-20T03:55:58;23.10;91.40
3690;DHT22;1861;50.240;8.596;2022-08-20T03:58:29;23.10;91.40
3690;DHT22;1861;50.240;8.596;2022-08-20T04:01:04;23.10;91.50
3690;DHT22;1861;50.240;8.596;2022-08-20T04:03:36;23.10;91.60
3690;DHT22;1861;50.240;8.596;2022-08-20T04:06:04;23.10;91.60
3690;DHT22;1861;50.240;8.596;2022-08-20T04:08:33;23.00;91.70
3690;DHT22;1861;50.240;8.596;2022-08-20T04:11:01;23.00;91.70
3690;DHT22;1861;50.240;8.596;2022-08-20T04:13:29;23.00;91.80
3690;DHT22;1861;50.240;8.596;2022-08-20T04:16:00;23.00;91.80
3690;DHT22;1861;50.240;8.596;2022-08-20T04:18:30;23.00;91.90
3690;DHT22;1861;50.240;8.596;2022-08-20T04:21:00;23.00;91.90
3690;DHT22;1861;50.240;8.596;2022-08-20T04:23:28;23.10;91.90
3690;DHT22;1861;50.240;8.596;2022-08-20T04:25:57;23.10;91.80
3690;DHT22;1861;50.240;8.596;2022-08-20T04:28:25;23.10;91.80
3690;DHT22;1861;50.240;8.596;2022-08-20T04:30:55;23.10;91.70
3690;DHT22;1861;50.240;8.596;2022-08-20T04:33:25;23.10;91.70
3690;DHT22;1861;50.240;8.596;2022-08-20T04:36:04;23.10;91.70
3690;DHT22;1861;50.240;8.596;2022-08-20T04:38:33;23.10;91.80
3690;DHT22;1861;50.240;8.596;2022-08-20T04:41:17;23.10;91.80
3690;DHT22;1861;50.240;8.596;2022-08-20T04:43:49;23.10;91.90
3690;DHT22;1861;50.240;8.596;2022-08-20T04:46:19;23.10;92.00
3690;DHT22;1861;50.240;8.596;2022-08-20T04:48:47;23.10;92.10
3690;DHT22;1861;50.240;8.596;2022-08-20T04:51:18;23.10;92.20
3690;DHT22;1861;50.240;8.596;2022-08-20T04:53:49;23.10;92.40
3690;DHT22;1861;50.240;8.596;2022-08-20T04:56:20;23.10;92.60
3690;DHT22;1861;50.240;8.596;2022-08-20T04:58:51;23.10;92.70
3690;DHT22;1861;50.240;8.596;2022-08-20T05:01:19;23.10;93.20
3690;DHT22;1861;50.240;8.596;2022-08-20T05:03:49;23.00;93.50
3690;DHT22;1861;50.240;8.596;2022-08-20T05:06:23;23.00;93.80
3690;DHT22;1861;50.240;8.596;2022-08-20T05:08:51;23.00;94.00
3690;DHT22;1861;50.240;8.596;2022-08-20T05:11:20;22.90;94.20
3690;DHT22;1861;50.240;8.596;2022-08-20T05:14:00;22.80;94.40
3690;DHT22;1861;50.240;8.596;2022-08-20T05:16:29;22.80;94.50
3690;DHT22;1861;50.240;8.596;2022-08-20T05:18:58;22.80;94.60
3690;DHT22;1861;50.240;8.596;2022-08-20T05:21:28;22.80;94.50
3690;DHT22;1861;50.240;8.596;2022-08-20T05:23:56;22.80;94.50
3690;DHT22;1861;50.240;8.596;2022-08-20T05:26:24;22.80;94.60
3690;DHT22;1861;50.240;8.596;2022-08-20T05:28:52;22.80;94.60
3690;DHT22;1861;50.240;8.596;2022-08-20T05:31:25;22.80;94.60
3690;DHT22;1861;50.240;8.596;2022-08-20T05:33:59;22.70;94.80
3690;DHT22;1861;50.240;8.596;2022-08-20T05:36:29;22.80;94.70
3690;DHT22;1861;50.240;8.596;2022-08-20T05:38:57;22.80;94.60
3690;DHT22;1861;50.240;8.596;2022-08-20T05:41:26;22.70;94.60
3690;DHT22;1861;50.240;8.596;2022-08-20T05:43:57;22.70;94.50
3690;DHT22;1861;50.240;8.596;2022-08-20T05:46:28;22.70;94.50
3690;DHT22;1861;50.240;8.596;2022-08-20T05:48:57;22.80;94.70
3690;DHT22;1861;50.240;8.596;2022-08-20T05:51:26;22.70;94.80
3690;DHT22;1861;50.240;8.596;2022-08-20T05:53:56;22.70;94.50
3690;DHT22;1861;50.240;8.596;2022-08-20T05:56:26;22.70;94.80
3690;DHT22;1861;50.240;8.596;2022-08-20T05:58:58;22.80;94.70
3690;DHT22;1861;50.240;8.596;2022-08-20T06:01:28;22.80;94.60
3690;DHT22;1861;50.240;8.596;2022-08-20T06:03:57;22.80;94.60
3690;DHT22;1861;50.240;8.596;2022-08-20T06:06:42;22.80;94.50
3690;DHT22;1861;50.240;8.596;2022-08-20T06:09:16;22.80;94.60
3690;DHT22;1861;50.240;8.596;2022-08-20T06:11:58;22.80;94.60
3690;DHT22;1861;50.240;8.596;2022-08-20T06:14:27;22.80;94.50
3690;DHT22;1861;50.240;8.596;2022-08-20T06:17:01;22.80;94.60
3690;DHT22;1861;50.240;8.596;2022-08-20T06:19:30;22.80;94.60
3690;DHT22;1861;50.240;8.596;2022-08-20T06:22:00;22.80;94.20
3690;DHT22;1861;50.240;8.596;2022-08-20T06:24:46;22.80;94.50
3690;DHT22;1861;50.240;8.596;2022-08-20T06:27:15;22.80;94.50
3690;DHT22;1861;50.240;8.596;2022-08-20T06:29:43;22.80;94.60
3690;DHT22;1861;50.240;8.596;2022-08-20T06:32:12;22.80;94.50
3690;DHT22;1861;50.240;8.596;2022-08-20T06:34:40;22.80;94.20
3690;DHT22;1861;50.240;8.596;2022-08-20T06:37:18;22.80;94.00
3690;DHT22;1861;50.240;8.596;2022-08-20T06:39:48;22.80;94.00
3690;DHT22;1861;50.240;8.596;2022-08-20T06:42:18;22.90;94.30
3690;DHT22;1861;50.240;8.596;2022-08-20T06:44:47;22.90;94.20
3690;DHT22;1861;50.240;8.596;2022-08-20T06:47:17;22.80;94.00
3690;DHT22;1861;50.240;8.596;2022-08-20T06:49:46;22.90;94.40
3690;DHT22;1861;50.240;8.596;2022-08-20T06:52:14;22.90;94.00
3690;DHT22;1861;50.240;8.596;2022-08-20T06:54:44;22.90;93.90
3690;DHT22;1861;50.240;8.596;2022-08-20T06:57:14;22.90;93.90
3690;DHT22;1861;50.240;8.596;2022-08-20T06:59:43;22.90;93.80
3690;DHT22;1861;50.240;8.596;2022-08-20T07:02:19;22.90;93.90
3690;DHT22;1861;50.240;8.596;2022-08-20T07:04:56;22.90;94.00
3690;DHT22;1861;50.240;8.596;2022-08-20T07:07:24;22.90;93.80
3690;DHT22;1861;50.240;8.596;2022-08-20T07:09:58;22.90;93.70
3690;DHT22;1861;50.240;8.596;2022-08-20T07:12:28;22.90;93.70
3690;DHT22;1861;50.240;8.596;2022-08-20T07:14:56;22.90;93.90
3690;DHT22;1861;50.240;8.596;2022-08-20T07:17:24;23.00;93.70
3690;DHT22;1861;50.240;8.596;2022-08-20T07:19:52;22.90;93.60
3690;DHT22;1861;50.240;8.596;2022-08-20T07:22:20;23.00;93.50
3690;DHT22;1861;50.240;8.596;2022-08-20T07:24:49;23.00;93.50
3690;DHT22;1861;50.240;8.596;2022-08-20T07:27:20;23.00;93.50
3690;DHT22;1861;50.240;8.596;2022-08-20T07:29:50;23.00;93.30
3690;DHT22;1861;50.240;8.596;2022-08-20T07:32:41;23.00;93.70
3690;DHT22;1861;50.240;8.596;2022-08-20T07:35:19;23.00;93.40
3690;DHT22;1861;50.240;8.596;2022-08-20T07:37:49;23.10;93.40
3690;DHT22;1861;50.240;8.596;2022-08-20T07:40:22;23.00;93.30
3690;DHT22;1861;50.240;8.596;2022-08-20T07:42:52;23.10;93.30
3690;DHT22;1861;50.240;8.596;2022-08-20T07:45:22;23.10;93.20
3690;DHT22;1861;50.240;8.596;2022-08-20T07:47:51;23.10;93.20
3690;DHT22;1861;50.240;8.596;2022-08-20T07:50:23;23.10;93.10
3690;DHT22;1861;50.240;8.596;2022-08-20T07:52:52;23.10;92.90
3690;DHT22;1861;50.240;8.596;2022-08-20T07:55:20;23.10;93.20
3690;DHT22;1861;50.240;8.596;2022-08-20T07:57:49;23.10;93.60
3690;DHT22;1861;50.240;8.596;2022-08-20T08:00:19;23.10;93.30
3690;DHT22;1861;50.240;8.596;2022-08-20T08:02:49;23.10;93.10
3690;DHT22;1861;50.240;8.596;2022-08-20T08:05:18;23.10;93.10
3690;DHT22;1861;50.240;8.596;2022-08-20T08:07:46;23.20;93.00
3690;DHT22;1861;50.240;8.596;2022-08-20T08:10:17;23.20;93.00
3690;DHT22;1861;50.240;8.596;2022-08-20T08:12:49;23.30;92.90
3690;DHT22;1861;50.240;8.596;2022-08-20T08:15:21;23.30;92.90
3690;DHT22;1861;50.240;8.596;2022-08-20T08:17:51;23.40;93.00
3690;DHT22;1861;50.240;8.596;2022-08-20T08:20:21;23.40;92.80
3690;DHT22;1861;50.240;8.596;2022-08-20T08:22:50;23.40;92.80
3690;DHT22;1861;50.240;8.596;2022-08-20T08:25:19;23.40;92.90
3690;DHT22;1861;50.240;8.596;2022-08-20T08:27:48;23.40;92.80
3690;DHT22;1861;50.240;8.596;2022-08-20T08:30:16;23.40;92.80
3690;DHT22;1861;50.240;8.596;2022-08-20T08:32:44;23.40;92.80
3690;DHT22;1861;50.240;8.596;2022-08-20T08:35:31;23.40;92.60
3690;DHT22;1861;50.240;8.596;2022-08-20T08:38:00;23.40;92.50
3690;DHT22;1861;50.240;8.596;2022-08-20T08:40:29;23.50;92.70
3690;DHT22;1861;50.240;8.596;2022-08-20T08:43:03;23.40;92.60
3690;DHT22;1861;50.240;8.596;2022-08-20T08:45:40;23.50;92.70
3690;DHT22;1861;50.240;8.596;2022-08-20T08:48:12;23.50;92.70
3690;DHT22;1861;50.240;8.596;2022-08-20T08:50:49;23.50;92.60
3690;DHT22;1861;50.240;8.596;2022-08-20T08:53:25;23.50;92.50
3690;DHT22;1861;50.240;8.596;2022-08-20T08:55:54;23.50;92.50
3690;DHT22;1861;50.240;8.596;2022-08-20T08:58:22;23.50;92.50
3690;DHT22;1861;50.240;8.596;2022-08-20T09:00:50;23.50;92.50
3690;DHT22;1861;50.240;8.596;2022-08-20T09:03:25;23.50;92.50
3690;DHT22;1861;50.240;8.596;2022-08-20T09:05:58;23.50;92.50
3690;DHT22;1861;50.240;8.596;2022-08-20T09:08:29;23.50;92.40
3690;DHT22;1861;50.240;8.596;2022-08-20T09:11:04;23.50;92.30
3690;DHT22;1861;50.240;8.596;2022-08-20T09:13:32;23.50;92.20
3690;DHT22;1861;50.240;8.596;2022-08-20T09:16:01;23.50;92.10
3690;DHT22;1861;50.240;8.596;2022-08-20T09:18:29;23.50;92.00
3690;DHT22;1861;50.240;8.596;2022-08-20T09:20:59;23.50;92.00
3690;DHT22;1861;50.240;8.596;2022-08-20T09:23:27;23.50;92.00
3690;DHT22;1861;50.240;8.596;2022-08-20T09:25:56;23.50;92.00
3690;DHT22;1861;50.240;8.596;2022-08-20T09:28:24;23.50;92.00
3690;DHT22;1861;50.240;8.596;2022-08-20T09:31:01;23.50;92.00
3690;DHT22;1861;50.240;8.596;2022-08-20T09:33:31;23.60;92.10
3690;DHT22;1861;50.240;8.596;2022-08-20T09:36:00;23.60;92.20
3690;DHT22;1861;50.240;8.596;2022-08-20T09:38:48;23.60;92.30
3690;DHT22;1861;50.240;8.596;2022-08-20T09:41:17;23.60;92.30
3690;DHT22;1861;50.240;8.596;2022-08-20T09:43:45;23.60;92.30
3690;DHT22;1861;50.240;8.596;2022-08-20T09:46:13;23.70;92.40
3690;DHT22;1861;50.240;8.596;2022-08-20T09:48:41;23.70;92.40
3690;DHT22;1861;50.240;8.596;2022-08-20T09:51:11;23.70;92.40
3690;DHT22;1861;50.240;8.596;2022-08-20T09:53:46;23.70;92.50
3690;DHT22;1861;50.240;8.596;2022-08-20T09:56:15;23.80;92.80
3690;DHT22;1861;50.240;8.596;2022-08-20T09:58:47;23.80;92.50
3690;DHT22;1861;50.240;8.596;2022-08-20T10:01:17;23.80;92.50
3690;DHT22;1861;50.240;8.596;2022-08-20T10:03:47;23.80;92.50
3690;DHT22;1861;50.240;8.596;2022-08-20T10:06:18;23.80;92.50
3690;DHT22;1861;50.240;8.596;2022-08-20T10:08:46;23.80;92.50
3690;DHT22;1861;50.240;8.596;2022-08-20T10:11:15;23.90;92.50
3690;DHT22;1861;50.240;8.596;2022-08-20T10:13:44;23.90;92.50
3690;DHT22;1861;50.240;8.596;2022-08-20T10:16:12;23.90;92.40
3690;DHT22;1861;50.240;8.596;2022-08-20T10:18:40;23.90;92.40
3690;DHT22;1861;50.240;8.596;2022-08-20T10:21:09;24.00;92.40
3690;DHT22;1861;50.240;8.596;2022-08-20T10:23:39;24.00;92.40
3690;DHT22;1861;50.240;8.596;2022-08-20T10:26:07;24.00;92.20
3690;DHT22;1861;50.240;8.596;2022-08-20T10:28:36;24.00;92.20
3690;DHT22;1861;50.240;8.596;2022-08-20T10:31:05;23.90;92.00
3690;DHT22;1861;50.240;8.596;2022-08-20T10:33:34;23.90;92.00
3690;DHT22;1861;50.240;8.596;2022-08-20T10:36:05;23.90;91.80
3690;DHT22;1861;50.240;8.596;2022-08-20T10:38:34;23.80;91.70
3690;DHT22;1861;50.240;8.596;2022-08-20T10:41:04;23.80;91.40
3690;DHT22;1861;50.240;8.596;2022-08-20T10:43:32;23.80;91.10
3690;DHT22;1861;50.240;8.596;2022-08-20T10:46:00;23.80;91.10
3690;DHT22;1861;50.240;8.596;2022-08-20T10:48:29;23.90;91.00
3690;DHT22;1861;50.240;8.596;2022-08-20T10:50:57;23.90;90.80
3690;DHT22;1861;50.240;8.596;2022-08-20T10:53:25;23.90;90.80
3690;DHT22;1861;50.240;8.596;2022-08-20T10:55:54;23.90;90.90
3690;DHT22;1861;50.240;8.596;2022-08-20T10:58:25;24.00;90.90
3690;DHT22;1861;50.240;8.596;2022-08-20T11:01:06;24.10;90.80
3690;DHT22;1861;50.240;8.596;2022-08-20T11:03:34;24.00;90.80
3690;DHT22;1861;50.240;8.596;2022-08-20T11:06:02;24.00;90.80
3690;DHT22;1861;50.240;8.596;2022-08-20T11:08:31;24.00;90.80
3690;DHT22;1861;50.240;8.596;2022-08-20T11:11:03;24.00;90.80
3690;DHT22;1861;50.240;8.596;2022-08-20T11:13:33;23.90;90.30
3690;DHT22;1861;50.240;8.596;2022-08-20T11:16:02;23.90;90.10
3690;DHT22;1861;50.240;8.596;2022-08-20T11:18:31;23.90;90.00
3690;DHT22;1861;50.240;8.596;2022-08-20T11:20:59;24.00;90.10
3690;DHT22;1861;50.240;8.596;2022-08-20T11:23:27;24.00;90.10
3690;DHT22;1861;50.240;8.596;2022-08-20T11:25:57;24.00;90.10
3690;DHT22;1861;50.240;8.596;2022-08-20T11:28:25;24.00;90.30
3690;DHT22;1861;50.240;8.596;2022-08-20T11:31:00;23.90;90.50
3690;DHT22;1861;50.240;8.596;2022-08-20T11:33:28;23.90;90.40
3690;DHT22;1861;50.240;8.596;2022-08-20T11:35:56;23.90;90.00
3690;DHT22;1861;50.240;8.596;2022-08-20T11:38:24;23.90;89.40
3690;DHT22;1861;50.240;8.596;2022-08-20T11:40:52;24.10;89.80
3690;DHT22;1861;50.240;8.596;2022-08-20T11:43:21;24.10;89.50
3690;DHT22;1861;50.240;8.596;2022-08-20T11:45:51;24.20;88.90
3690;DHT22;1861;50.240;8.596;2022-08-20T11:48:22;24.10;89.60
3690;DHT22;1861;50.240;8.596;2022-08-20T11:50:50;24.00;90.10
3690;DHT22;1861;50.240;8.596;2022-08-20T11:53:18;24.00;90.10
3690;DHT22;1861;50.240;8.596;2022-08-20T11:55:48;24.00;90.00
3690;DHT22;1861;50.240;8.596;2022-08-20T11:58:16;24.00;89.00
3690;DHT22;1861;50.240;8.596;2022-08-20T12:00:45;24.00;89.50
3690;DHT22;1861;50.240;8.596;2022-08-20T12:03:13;24.40;88.30
3690;DHT22;1861;50.240;8.596;2022-08-20T12:05:44;24.50;87.90
3690;DHT22;1861;50.240;8.596;2022-08-20T12:08:14;24.30;87.90
3690;DHT22;1861;50.240;8.596;2022-08-20T12:10:54;24.30;88.10
3690;DHT22;1861;50.240;8.596;2022-08-20T12:13:23;24.20;88.10
3690;DHT22;1861;50.240;8.596;2022-08-20T12:16:11;24.10;88.20
3690;DHT22;1861;50.240;8.596;2022-08-20T12:18:40;24.10;87.50
3690;DHT22;1861;50.240;8.596;2022-08-20T12:21:09;24.10;87.80
3690;DHT22;1861;50.240;8.596;2022-08-20T12:23:37;24.30;87.80
3690;DHT22;1861;50.240;8.596;2022-08-20T12:26:06;24.50;88.10
3690;DHT22;1861;50.240;8.596;2022-08-20T12:28:34;24.60;88.10
3690;DHT22;1861;50.240;8.596;2022-08-20T12:31:03;24.60;89.20
3690;DHT22;1861;50.240;8.596;2022-08-20T12:33:31;24.50;87.90
3690;DHT22;1861;50.240;8.596;2022-08-20T12:35:59;24.60;87.60
3690;DHT22;1861;50.240;8.596;2022-08-20T12:38:28;24.70;87.90
3690;DHT22;1861;50.240;8.596;2022-08-20T12:40:56;24.70;87.60
3690;DHT22;1861;50.240;8.596;2022-08-20T12:43:25;24.80;87.00
3690;DHT22;1861;50.240;8.596;2022-08-20T12:45:53;24.80;87.30
3690;DHT22;1861;50.240;8.596;2022-08-20T12:48:21;24.70;87.30
3690;DHT22;1861;50.240;8.596;2022-08-20T12:50:49;24.60;87.60
3690;DHT22;1861;50.240;8.596;2022-08-20T12:53:18;24.70;86.80
3690;DHT22;1861;50.240;8.596;2022-08-20T12:55:48;24.70;85.50
3690;DHT22;1861;50.240;8.596;2022-08-20T12:58:16;24.70;85.90
3690;DHT22;1861;50.240;8.596;2022-08-20T13:00:45;24.80;85.40
3690;DHT22;1861;50.240;8.596;2022-08-20T13:03:18;24.60;85.80
3690;DHT22;1861;50.240;8.596;2022-08-20T13:05:47;24.60;86.70
3690;DHT22;1861;50.240;8.596;2022-08-20T13:08:15;24.60;85.10
3690;DHT22;1861;50.240;8.596;2022-08-20T13:10:45;24.60;85.20
3690;DHT22;1861;50.240;8.596;2022-08-20T13:13:16;24.60;85.40
3690;DHT22;1861;50.240;8.596;2022-08-20T13:15:47;24.60;85.70
3690;DHT22;1861;50.240;8.596;2022-08-20T13:18:18;24.50;85.30
3690;DHT22;1861;50.240;8.596;2022-08-20T13:20:46;24.50;85.60
3690;DHT22;1861;50.240;8.596;2022-08-20T13:23:14;24.50;85.60
3690;DHT22;1861;50.240;8.596;2022-08-20T13:25:42;24.50;85.30
3690;DHT22;1861;50.240;8.596;2022-08-20T13:28:11;24.60;85.70
3690;DHT22;1861;50.240;8.596;2022-08-20T13:30:40;24.60;86.10
3690;DHT22;1861;50.240;8.596;2022-08-20T13:33:09;24.60;86.00
3690;DHT22;1861;50.240;8.596;2022-08-20T13:35:37;24.50;85.30
3690;DHT22;1861;50.240;8.596;2022-08-20T13:38:05;24.50;86.10
3690;DHT22;1861;50.240;8.596;2022-08-20T13:40:33;24.50;86.30
3690;DHT22;1861;50.240;8.596;2022-08-20T13:43:01;24.50;86.90
3690;DHT22;1861;50.240;8.596;2022-08-20T13:45:34;24.50;87.40
3690;DHT22;1861;50.240;8.596;2022-08-20T13:48:04;24.40;87.10
3690;DHT22;1861;50.240;8.596;2022-08-20T13:50:41;24.50;87.10
3690;DHT22;1861;50.240;8.596;2022-08-20T13:53:13;24.50;87.10
3690;DHT22;1861;50.240;8.596;2022-08-20T13:55:42;24.50;87.60
3690;DHT22;1861;50.240;8.596;2022-08-20T13:58:11;24.50;87.90
3690;DHT22;1861;50.240;8.596;2022-08-20T14:00:39;24.50;87.80
3690;DHT22;1861;50.240;8.596;2022-08-20T14:03:09;24.40;87.70
3690;DHT22;1861;50.240;8.596;2022-08-20T14:05:37;24.40;87.70
3690;DHT22;1861;50.240;8.596;2022-08-20T14:08:07;24.40;88.00
3690;DHT22;1861;50.240;8.596;2022-08-20T14:10:36;24.50;88.00
3690;DHT22;1861;50.240;8.596;2022-08-20T14:13:08;24.40;88.30
3690;DHT22;1861;50.240;8.596;2022-08-20T14:15:42;24.40;88.30
3690;DHT22;1861;50.240;8.596;2022-08-20T14:18:12;24.40;88.10
3690;DHT22;1861;50.240;8.596;2022-08-20T14:20:41;24.40;88.00
3690;DHT22;1861;50.240;8.596;2022-08-20T14:23:11;24.40;87.50
3690;DHT22;1861;50.240;8.596;2022-08-20T14:25:40;24.40;87.10
3690;DHT22;1861;50.240;8.596;2022-08-20T14:28:13;24.40;88.00
3690;DHT22;1861;50.240;8.596;2022-08-20T14:30:44;24.40;88.20
3690;DHT22;1861;50.240;8.596;2022-08-20T14:33:21;24.40;88.10
3690;DHT22;1861;50.240;8.596;2022-08-20T14:35:50;24.40;87.80
3690;DHT22;1861;50.240;8.596;2022-08-20T14:38:19;24.40;87.90
3690;DHT22;1861;50.240;8.596;2022-08-20T14:40:47;24.40;88.30
3690;DHT22;1861;50.240;8.596;2022-08-20T14:43:16;24.40;88.10
3690;DHT22;1861;50.240;8.596;2022-08-20T14:45:44;24.40;88.20
3690;DHT22;1861;50.240;8.596;2022-08-20T14:48:12;24.40;88.30
3690;DHT22;1861;50.240;8.596;2022-08-20T14:50:42;24.40;88.50
3690;DHT22;1861;50.240;8.596;2022-08-20T14:53:10;24.40;88.40
3690;DHT22;1861;50.240;8.596;2022-08-20T14:55:38;24.40;88.30
3690;DHT22;1861;50.240;8.596;2022-08-20T14:58:08;24.40;88.80
3690;DHT22;1861;50.240;8.596;2022-08-20T15:00:36;24.40;88.70
3690;DHT22;1861;50.240;8.596;2022-08-20T15:03:04;24.40;88.30
3690;DHT22;1861;50.240;8.596;2022-08-20T15:05:33;24.40;88.50
3690;DHT22;1861;50.240;8.596;2022-08-20T15:08:07;24.40;88.90
3690;DHT22;1861;50.240;8.596;2022-08-20T15:10:37;24.40;88.80
3690;DHT22;1861;50.240;8.596;2022-08-20T15:13:06;24.30;88.60
3690;DHT22;1861;50.240;8.596;2022-08-20T15:15:34;24.40;88.90
3690;DHT22;1861;50.240;8.596;2022-08-20T15:18:02;24.40;88.90
3690;DHT22;1861;50.240;8.596;2022-08-20T15:20:33;24.40;89.60
3690;DHT22;1861;50.240;8.596;2022-08-20T15:23:02;24.40;88.70
3690;DHT22;1861;50.240;8.596;2022-08-20T15:25:34;24.30;88.40
3690;DHT22;1861;50.240;8.596;2022-08-20T15:28:05;24.40;88.70
3690;DHT22;1861;50.240;8.596;2022-08-20T15:30:35;24.40;88.40
3690;DHT22;1861;50.240;8.596;2022-08-20T15:33:03;24.40;88.40
3690;DHT22;1861;50.240;8.596;2022-08-20T15:35:32;24.30;87.40
3690;DHT22;1861;50.240;8.596;2022-08-20T15:38:00;24.40;88.10
3690;DHT22;1861;50.240;8.596;2022-08-20T15:40:30;24.30;87.90
3690;DHT22;1861;50.240;8.596;2022-08-20T15:43:01;24.30;88.10
3690;DHT22;1861;50.240;8.596;2022-08-20T15:45:30;24.30;88.20
3690;DHT22;1861;50.240;8.596;2022-08-20T15:48:06;24.40;88.70
3690;DHT22;1861;50.240;8.596;2022-08-20T15:51:02;24.30;88.70
3690;DHT22;1861;50.240;8.596;2022-08-20T15:53:42;24.40;89.40
3690;DHT22;1861;50.240;8.596;2022-08-20T15:56:32;24.30;88.70
3690;DHT22;1861;50.240;8.596;2022-08-20T15:59:17;24.40;88.90
3690;DHT22;1861;50.240;8.596;2022-08-20T16:01:56;24.40;89.00
3690;DHT22;1861;50.240;8.596;2022-08-20T16:07:20;24.30;89.00
3690;DHT22;1861;50.240;8.596;2022-08-20T16:09:57;24.40;88.80
3690;DHT22;1861;50.240;8.596;2022-08-20T16:12:32;24.40;88.60
3690;DHT22;1861;50.240;8.596;2022-08-20T16:15:07;24.30;87.60
3690;DHT22;1861;50.240;8.596;2022-08-20T16:17:39;24.30;87.60
3690;DHT22;1861;50.240;8.596;2022-08-20T16:20:11;24.30;88.80
3690;DHT22;1861;50.240;8.596;2022-08-20T16:22:41;24.30;88.70
3690;DHT22;1861;50.240;8.596;2022-08-20T16:25:11;24.30;88.20
3690;DHT22;1861;50.240;8.596;2022-08-20T16:27:48;24.30;87.90